<?xml version="1.0" encoding="UTF-8" standalone="no" ?>
<gpx xmlns="http://www.topografix.com/GPX/1/1" xmlns:xsi="http://www.w3.org/2001/XMLSchema-instance" xsi:schemaLocation="http://www.topografix.com/GPX/1/1 http://www.topografix.com/GPX/1/1/gpx.xsd" version="1.1" creator="VisuGPX - https://www.visugpx.com">
  <metadata>
    <name>Prébayon variante</name>
    <desc><![CDATA[modification due au terrain humide]]></desc>
  </metadata>
  <trk>
    <name><![CDATA[Prébayon variante_1]]></name>
    <extensions>
      <line xmlns="http://www.topografix.com/GPX/gpx_style/0/2">
        <color>0000FF</color>
        <width>4</width>
      </line>
    </extensions>
    <trkseg>
      <trkpt lat="44.20685" lon="5.02294">
        <ele>243.2</ele>
        <time>2020-11-26T08:14:08Z</time>
      </trkpt>
      <trkpt lat="44.20684" lon="5.02293">
        <ele>243.2</ele>
        <time>2020-11-26T08:14:09Z</time>
      </trkpt>
      <trkpt lat="44.20662" lon="5.0228">
        <ele>242.9</ele>
        <time>2020-11-26T08:14:35Z</time>
      </trkpt>
      <trkpt lat="44.20659" lon="5.02279">
        <ele>242.7</ele>
        <time>2020-11-26T08:14:38Z</time>
      </trkpt>
      <trkpt lat="44.20638" lon="5.02276">
        <ele>242.1</ele>
        <time>2020-11-26T08:14:56Z</time>
      </trkpt>
      <trkpt lat="44.20632" lon="5.02274">
        <ele>241.7</ele>
        <time>2020-11-26T08:15:01Z</time>
      </trkpt>
      <trkpt lat="44.20617" lon="5.02276">
        <ele>242.3</ele>
        <time>2020-11-26T08:15:14Z</time>
      </trkpt>
      <trkpt lat="44.20615" lon="5.02278">
        <ele>242.8</ele>
        <time>2020-11-26T08:15:18Z</time>
      </trkpt>
      <trkpt lat="44.20611" lon="5.02283">
        <ele>244.2</ele>
        <time>2020-11-26T08:15:23Z</time>
      </trkpt>
      <trkpt lat="44.20605" lon="5.02292">
        <ele>246.7</ele>
        <time>2020-11-26T08:15:36Z</time>
      </trkpt>
      <trkpt lat="44.20589" lon="5.02298">
        <ele>248.7</ele>
        <time>2020-11-26T08:15:56Z</time>
      </trkpt>
      <trkpt lat="44.20581" lon="5.02305">
        <ele>250.7</ele>
        <time>2020-11-26T08:16:11Z</time>
      </trkpt>
      <trkpt lat="44.20569" lon="5.023">
        <ele>248.4</ele>
        <time>2020-11-26T08:16:37Z</time>
      </trkpt>
      <trkpt lat="44.20554" lon="5.02318">
        <ele>252.5</ele>
        <time>2020-11-26T08:16:55Z</time>
      </trkpt>
      <trkpt lat="44.20543" lon="5.0231">
        <ele>249.4</ele>
        <time>2020-11-26T08:17:19Z</time>
      </trkpt>
      <trkpt lat="44.20517" lon="5.02298">
        <ele>244</ele>
        <time>2020-11-26T08:17:39Z</time>
      </trkpt>
      <trkpt lat="44.20474" lon="5.0233">
        <ele>246.9</ele>
        <time>2020-11-26T08:18:29Z</time>
      </trkpt>
      <trkpt lat="44.20459" lon="5.02334">
        <ele>244.8</ele>
        <time>2020-11-26T08:18:51Z</time>
      </trkpt>
      <trkpt lat="44.20448" lon="5.02348">
        <ele>245.3</ele>
        <time>2020-11-26T08:19:05Z</time>
      </trkpt>
      <trkpt lat="44.20432" lon="5.02355">
        <ele>242.7</ele>
        <time>2020-11-26T08:19:19Z</time>
      </trkpt>
      <trkpt lat="44.20422" lon="5.02365">
        <ele>241.6</ele>
        <time>2020-11-26T08:19:29Z</time>
      </trkpt>
      <trkpt lat="44.20415" lon="5.02374">
        <ele>240.9</ele>
        <time>2020-11-26T08:19:49Z</time>
      </trkpt>
      <trkpt lat="44.20413" lon="5.02376">
        <ele>240.7</ele>
        <time>2020-11-26T08:19:51Z</time>
      </trkpt>
      <trkpt lat="44.20411" lon="5.0238">
        <ele>240.7</ele>
        <time>2020-11-26T08:19:55Z</time>
      </trkpt>
      <trkpt lat="44.20409" lon="5.02385">
        <ele>240.8</ele>
        <time>2020-11-26T08:19:58Z</time>
      </trkpt>
      <trkpt lat="44.20401" lon="5.02398">
        <ele>240.3</ele>
        <time>2020-11-26T08:20:11Z</time>
      </trkpt>
      <trkpt lat="44.204" lon="5.024">
        <ele>240.2</ele>
        <time>2020-11-26T08:20:13Z</time>
      </trkpt>
      <trkpt lat="44.20389" lon="5.02413">
        <ele>238.7</ele>
      </trkpt>
      <trkpt lat="44.2039" lon="5.02411">
        <ele>238.7</ele>
        <time>2020-11-26T08:24:34Z</time>
      </trkpt>
      <trkpt lat="44.20389" lon="5.02411">
        <ele>238.4</ele>
        <time>2020-11-26T08:24:35Z</time>
      </trkpt>
      <trkpt lat="44.20377" lon="5.02409">
        <ele>234.8</ele>
        <time>2020-11-26T08:24:46Z</time>
      </trkpt>
      <trkpt lat="44.20359" lon="5.02405">
        <ele>229.4</ele>
        <time>2020-11-26T08:25:01Z</time>
      </trkpt>
      <trkpt lat="44.20341" lon="5.02403">
        <ele>224.3</ele>
        <time>2020-11-26T08:25:20Z</time>
      </trkpt>
      <trkpt lat="44.20338" lon="5.02402">
        <ele>223.4</ele>
        <time>2020-11-26T08:25:23Z</time>
      </trkpt>
      <trkpt lat="44.20336" lon="5.02402">
        <ele>222.9</ele>
        <time>2020-11-26T08:25:24Z</time>
      </trkpt>
      <trkpt lat="44.20315" lon="5.02398">
        <ele>223.4</ele>
        <time>2020-11-26T08:25:44Z</time>
      </trkpt>
      <trkpt lat="44.20298" lon="5.02398">
        <ele>224.7</ele>
        <time>2020-11-26T08:25:59Z</time>
      </trkpt>
      <trkpt lat="44.20296" lon="5.024">
        <ele>225.1</ele>
        <time>2020-11-26T08:26:01Z</time>
      </trkpt>
      <trkpt lat="44.20295" lon="5.024">
        <ele>225.2</ele>
        <time>2020-11-26T08:26:02Z</time>
      </trkpt>
      <trkpt lat="44.20294" lon="5.02401">
        <ele>225.4</ele>
        <time>2020-11-26T08:26:03Z</time>
      </trkpt>
      <trkpt lat="44.20293" lon="5.02402">
        <ele>225.6</ele>
        <time>2020-11-26T08:26:04Z</time>
      </trkpt>
      <trkpt lat="44.20292" lon="5.02402">
        <ele>225.7</ele>
        <time>2020-11-26T08:26:05Z</time>
      </trkpt>
      <trkpt lat="44.2029" lon="5.02403">
        <ele>226</ele>
        <time>2020-11-26T08:26:06Z</time>
      </trkpt>
      <trkpt lat="44.20274" lon="5.02394">
        <ele>226.1</ele>
        <time>2020-11-26T08:26:21Z</time>
      </trkpt>
      <trkpt lat="44.20264" lon="5.02371">
        <ele>223.2</ele>
        <time>2020-11-26T08:26:37Z</time>
      </trkpt>
      <trkpt lat="44.20251" lon="5.02346">
        <ele>219.3</ele>
        <time>2020-11-26T08:26:55Z</time>
      </trkpt>
      <trkpt lat="44.20231" lon="5.02337">
        <ele>219.7</ele>
        <time>2020-11-26T08:27:14Z</time>
      </trkpt>
      <trkpt lat="44.20218" lon="5.02345">
        <ele>222.6</ele>
        <time>2020-11-26T08:27:28Z</time>
      </trkpt>
      <trkpt lat="44.20211" lon="5.02327">
        <ele>220.6</ele>
        <time>2020-11-26T08:27:50Z</time>
      </trkpt>
      <trkpt lat="44.20215" lon="5.02332">
        <ele>220.6</ele>
        <time>2020-11-26T08:28:25Z</time>
      </trkpt>
      <trkpt lat="44.20205" lon="5.0235">
        <ele>224.9</ele>
        <time>2020-11-26T08:28:55Z</time>
      </trkpt>
      <trkpt lat="44.20186" lon="5.02355">
        <ele>227.8</ele>
        <time>2020-11-26T08:29:19Z</time>
      </trkpt>
      <trkpt lat="44.20166" lon="5.02357">
        <ele>230.3</ele>
        <time>2020-11-26T08:29:40Z</time>
      </trkpt>
      <trkpt lat="44.20147" lon="5.02364">
        <ele>232.7</ele>
        <time>2020-11-26T08:29:58Z</time>
      </trkpt>
      <trkpt lat="44.20128" lon="5.02368">
        <ele>234.6</ele>
        <time>2020-11-26T08:30:18Z</time>
      </trkpt>
      <trkpt lat="44.20112" lon="5.02366">
        <ele>235.2</ele>
        <time>2020-11-26T08:30:32Z</time>
      </trkpt>
      <trkpt lat="44.201" lon="5.02362">
        <ele>235.2</ele>
        <time>2020-11-26T08:30:45Z</time>
      </trkpt>
      <trkpt lat="44.20081" lon="5.02351">
        <ele>234.4</ele>
        <time>2020-11-26T08:31:00Z</time>
      </trkpt>
      <trkpt lat="44.20077" lon="5.0235">
        <ele>234.5</ele>
        <time>2020-11-26T08:31:04Z</time>
      </trkpt>
      <trkpt lat="44.20076" lon="5.0235">
        <ele>234.6</ele>
        <time>2020-11-26T08:31:05Z</time>
      </trkpt>
      <trkpt lat="44.20074" lon="5.0235">
        <ele>234.8</ele>
        <time>2020-11-26T08:31:06Z</time>
      </trkpt>
      <trkpt lat="44.20073" lon="5.02349">
        <ele>234.7</ele>
        <time>2020-11-26T08:31:07Z</time>
      </trkpt>
      <trkpt lat="44.20072" lon="5.02349">
        <ele>234.8</ele>
        <time>2020-11-26T08:31:08Z</time>
      </trkpt>
      <trkpt lat="44.20071" lon="5.02348">
        <ele>234.7</ele>
        <time>2020-11-26T08:31:09Z</time>
      </trkpt>
      <trkpt lat="44.20063" lon="5.02345">
        <ele>234.8</ele>
        <time>2020-11-26T08:31:18Z</time>
      </trkpt>
      <trkpt lat="44.20062" lon="5.02344">
        <ele>234.7</ele>
        <time>2020-11-26T08:31:19Z</time>
      </trkpt>
      <trkpt lat="44.20046" lon="5.02335">
        <ele>234.4</ele>
        <time>2020-11-26T08:31:35Z</time>
      </trkpt>
      <trkpt lat="44.20035" lon="5.02327">
        <ele>234.1</ele>
        <time>2020-11-26T08:31:49Z</time>
      </trkpt>
      <trkpt lat="44.20035" lon="5.02326">
        <ele>234</ele>
        <time>2020-11-26T08:32:19Z</time>
      </trkpt>
      <trkpt lat="44.20034" lon="5.02326">
        <ele>234.1</ele>
        <time>2020-11-26T08:33:24Z</time>
      </trkpt>
      <trkpt lat="44.20033" lon="5.02326">
        <ele>234.2</ele>
        <time>2020-11-26T08:34:55Z</time>
      </trkpt>
      <trkpt lat="44.20025" lon="5.02324">
        <ele>234.5</ele>
        <time>2020-11-26T08:35:21Z</time>
      </trkpt>
      <trkpt lat="44.20007" lon="5.02313">
        <ele>234.3</ele>
        <time>2020-11-26T08:35:40Z</time>
      </trkpt>
      <trkpt lat="44.19989" lon="5.02307">
        <ele>233.8</ele>
        <time>2020-11-26T08:35:55Z</time>
      </trkpt>
      <trkpt lat="44.19968" lon="5.02299">
        <ele>232.4</ele>
        <time>2020-11-26T08:36:13Z</time>
      </trkpt>
      <trkpt lat="44.19949" lon="5.02295">
        <ele>231.7</ele>
        <time>2020-11-26T08:36:29Z</time>
      </trkpt>
      <trkpt lat="44.19923" lon="5.02295">
        <ele>231.5</ele>
        <time>2020-11-26T08:36:48Z</time>
      </trkpt>
      <trkpt lat="44.19908" lon="5.02296">
        <ele>231.8</ele>
        <time>2020-11-26T08:37:01Z</time>
      </trkpt>
      <trkpt lat="44.19886" lon="5.023">
        <ele>232.9</ele>
        <time>2020-11-26T08:37:18Z</time>
      </trkpt>
      <trkpt lat="44.19871" lon="5.02309">
        <ele>234.6</ele>
        <time>2020-11-26T08:37:33Z</time>
      </trkpt>
      <trkpt lat="44.19863" lon="5.02314">
        <ele>235.5</ele>
        <time>2020-11-26T08:37:42Z</time>
      </trkpt>
      <trkpt lat="44.19859" lon="5.02312">
        <ele>235.3</ele>
        <time>2020-11-26T08:37:45Z</time>
      </trkpt>
      <trkpt lat="44.19858" lon="5.02312">
        <ele>235.3</ele>
        <time>2020-11-26T08:37:46Z</time>
      </trkpt>
      <trkpt lat="44.19857" lon="5.02312">
        <ele>235.4</ele>
        <time>2020-11-26T08:37:47Z</time>
      </trkpt>
      <trkpt lat="44.19844" lon="5.02312">
        <ele>235.7</ele>
        <time>2020-11-26T08:37:58Z</time>
      </trkpt>
      <trkpt lat="44.19834" lon="5.02312">
        <ele>235.9</ele>
        <time>2020-11-26T08:38:15Z</time>
      </trkpt>
      <trkpt lat="44.1982" lon="5.02313">
        <ele>235.8</ele>
        <time>2020-11-26T08:38:38Z</time>
      </trkpt>
      <trkpt lat="44.198" lon="5.02316">
        <ele>235.7</ele>
        <time>2020-11-26T08:38:56Z</time>
      </trkpt>
      <trkpt lat="44.19779" lon="5.02319">
        <ele>235.6</ele>
        <time>2020-11-26T08:39:13Z</time>
      </trkpt>
      <trkpt lat="44.19772" lon="5.02321">
        <ele>235.8</ele>
        <time>2020-11-26T08:39:28Z</time>
      </trkpt>
      <trkpt lat="44.1977" lon="5.02321">
        <ele>235.7</ele>
        <time>2020-11-26T08:39:29Z</time>
      </trkpt>
      <trkpt lat="44.19769" lon="5.02321">
        <ele>235.7</ele>
        <time>2020-11-26T08:39:30Z</time>
      </trkpt>
      <trkpt lat="44.19768" lon="5.02321">
        <ele>235.7</ele>
        <time>2020-11-26T08:39:31Z</time>
      </trkpt>
      <trkpt lat="44.19767" lon="5.02322">
        <ele>235.8</ele>
        <time>2020-11-26T08:39:32Z</time>
      </trkpt>
      <trkpt lat="44.1975" lon="5.02324">
        <ele>235.7</ele>
        <time>2020-11-26T08:39:48Z</time>
      </trkpt>
      <trkpt lat="44.1973" lon="5.02331">
        <ele>235</ele>
        <time>2020-11-26T08:40:06Z</time>
      </trkpt>
      <trkpt lat="44.19708" lon="5.0233">
        <ele>233</ele>
        <time>2020-11-26T08:40:27Z</time>
      </trkpt>
      <trkpt lat="44.1971" lon="5.02331">
        <ele>233.3</ele>
        <time>2020-11-26T08:40:46Z</time>
      </trkpt>
      <trkpt lat="44.1971" lon="5.0233">
        <ele>233.2</ele>
        <time>2020-11-26T08:41:08Z</time>
      </trkpt>
      <trkpt lat="44.19703" lon="5.02333">
        <ele>233</ele>
        <time>2020-11-26T08:41:27Z</time>
      </trkpt>
      <trkpt lat="44.19702" lon="5.02333">
        <ele>232.9</ele>
        <time>2020-11-26T08:41:28Z</time>
      </trkpt>
      <trkpt lat="44.19678" lon="5.02334">
        <ele>231.1</ele>
        <time>2020-11-26T08:41:50Z</time>
      </trkpt>
      <trkpt lat="44.19655" lon="5.02336">
        <ele>230</ele>
        <time>2020-11-26T08:42:07Z</time>
      </trkpt>
      <trkpt lat="44.19642" lon="5.02339">
        <ele>230</ele>
        <time>2020-11-26T08:42:17Z</time>
      </trkpt>
      <trkpt lat="44.19641" lon="5.02339">
        <ele>230</ele>
        <time>2020-11-26T08:42:18Z</time>
      </trkpt>
      <trkpt lat="44.1964" lon="5.02339">
        <ele>229.9</ele>
        <time>2020-11-26T08:42:19Z</time>
      </trkpt>
      <trkpt lat="44.19639" lon="5.0234">
        <ele>230.1</ele>
        <time>2020-11-26T08:42:20Z</time>
      </trkpt>
      <trkpt lat="44.19638" lon="5.0234">
        <ele>230</ele>
        <time>2020-11-26T08:42:21Z</time>
      </trkpt>
      <trkpt lat="44.19636" lon="5.02341">
        <ele>230.2</ele>
        <time>2020-11-26T08:42:22Z</time>
      </trkpt>
      <trkpt lat="44.19617" lon="5.02344">
        <ele>229.9</ele>
        <time>2020-11-26T08:42:39Z</time>
      </trkpt>
      <trkpt lat="44.19595" lon="5.02345">
        <ele>229.2</ele>
        <time>2020-11-26T08:42:57Z</time>
      </trkpt>
      <trkpt lat="44.19594" lon="5.02344">
        <ele>228.9</ele>
        <time>2020-11-26T08:43:14Z</time>
      </trkpt>
      <trkpt lat="44.1959" lon="5.02344">
        <ele>228.7</ele>
        <time>2020-11-26T08:44:11Z</time>
      </trkpt>
      <trkpt lat="44.19569" lon="5.02344">
        <ele>229</ele>
        <time>2020-11-26T08:44:31Z</time>
      </trkpt>
      <trkpt lat="44.19546" lon="5.02341">
        <ele>229.2</ele>
        <time>2020-11-26T08:44:49Z</time>
      </trkpt>
      <trkpt lat="44.19524" lon="5.0234">
        <ele>229.8</ele>
        <time>2020-11-26T08:45:06Z</time>
      </trkpt>
      <trkpt lat="44.19505" lon="5.02336">
        <ele>229.5</ele>
        <time>2020-11-26T08:45:21Z</time>
      </trkpt>
      <trkpt lat="44.19486" lon="5.02335">
        <ele>231.3</ele>
        <time>2020-11-26T08:45:37Z</time>
      </trkpt>
      <trkpt lat="44.19465" lon="5.02329">
        <ele>232.9</ele>
        <time>2020-11-26T08:45:55Z</time>
      </trkpt>
      <trkpt lat="44.19443" lon="5.02327">
        <ele>235.4</ele>
        <time>2020-11-26T08:46:14Z</time>
      </trkpt>
      <trkpt lat="44.19425" lon="5.02319">
        <ele>236.2</ele>
        <time>2020-11-26T08:46:31Z</time>
      </trkpt>
      <trkpt lat="44.19409" lon="5.02311">
        <ele>236.6</ele>
        <time>2020-11-26T08:46:47Z</time>
      </trkpt>
      <trkpt lat="44.19391" lon="5.02301">
        <ele>236.5</ele>
        <time>2020-11-26T08:47:03Z</time>
      </trkpt>
      <trkpt lat="44.19375" lon="5.0229">
        <ele>235.6</ele>
        <time>2020-11-26T08:47:21Z</time>
      </trkpt>
      <trkpt lat="44.19361" lon="5.0228">
        <ele>234.4</ele>
        <time>2020-11-26T08:47:36Z</time>
      </trkpt>
      <trkpt lat="44.19339" lon="5.02274">
        <ele>234.5</ele>
        <time>2020-11-26T08:47:53Z</time>
      </trkpt>
      <trkpt lat="44.19319" lon="5.02272">
        <ele>235.4</ele>
        <time>2020-11-26T08:48:11Z</time>
      </trkpt>
      <trkpt lat="44.19301" lon="5.02266">
        <ele>235</ele>
        <time>2020-11-26T08:48:27Z</time>
      </trkpt>
      <trkpt lat="44.19283" lon="5.02258">
        <ele>234.3</ele>
        <time>2020-11-26T08:48:43Z</time>
      </trkpt>
      <trkpt lat="44.19282" lon="5.02258">
        <ele>234.4</ele>
        <time>2020-11-26T08:48:44Z</time>
      </trkpt>
      <trkpt lat="44.19281" lon="5.02258">
        <ele>234.5</ele>
        <time>2020-11-26T08:48:45Z</time>
      </trkpt>
      <trkpt lat="44.19279" lon="5.02258">
        <ele>234.6</ele>
        <time>2020-11-26T08:48:46Z</time>
      </trkpt>
      <trkpt lat="44.19265" lon="5.02263">
        <ele>237</ele>
        <time>2020-11-26T08:49:06Z</time>
      </trkpt>
      <trkpt lat="44.19267" lon="5.02262">
        <ele>236.6</ele>
        <time>2020-11-26T08:49:43Z</time>
      </trkpt>
      <trkpt lat="44.19268" lon="5.02275">
        <ele>239.7</ele>
        <time>2020-11-26T08:50:04Z</time>
      </trkpt>
      <trkpt lat="44.1927" lon="5.02292">
        <ele>243.9</ele>
        <time>2020-11-26T08:50:20Z</time>
      </trkpt>
      <trkpt lat="44.1927" lon="5.023">
        <ele>245.9</ele>
        <time>2020-11-26T08:50:30Z</time>
      </trkpt>
      <trkpt lat="44.19264" lon="5.02316">
        <ele>250.2</ele>
        <time>2020-11-26T08:50:47Z</time>
      </trkpt>
      <trkpt lat="44.19254" lon="5.02322">
        <ele>252.1</ele>
        <time>2020-11-26T08:51:02Z</time>
      </trkpt>
      <trkpt lat="44.1924" lon="5.02325">
        <ele>253.2</ele>
        <time>2020-11-26T08:51:20Z</time>
      </trkpt>
      <trkpt lat="44.19228" lon="5.02325">
        <ele>253.4</ele>
        <time>2020-11-26T08:51:38Z</time>
      </trkpt>
      <trkpt lat="44.1922" lon="5.02331">
        <ele>254.8</ele>
        <time>2020-11-26T08:51:54Z</time>
      </trkpt>
      <trkpt lat="44.19213" lon="5.02342">
        <ele>258.4</ele>
        <time>2020-11-26T08:52:14Z</time>
      </trkpt>
      <trkpt lat="44.19203" lon="5.02356">
        <ele>263.1</ele>
        <time>2020-11-26T08:52:35Z</time>
      </trkpt>
      <trkpt lat="44.19195" lon="5.02368">
        <ele>266.9</ele>
        <time>2020-11-26T08:53:01Z</time>
      </trkpt>
      <trkpt lat="44.19196" lon="5.02367">
        <ele>266.6</ele>
        <time>2020-11-26T08:53:38Z</time>
      </trkpt>
      <trkpt lat="44.19196" lon="5.02364">
        <ele>265.6</ele>
        <time>2020-11-26T08:54:11Z</time>
      </trkpt>
      <trkpt lat="44.19186" lon="5.02361">
        <ele>264.5</ele>
        <time>2020-11-26T08:54:36Z</time>
      </trkpt>
      <trkpt lat="44.19176" lon="5.02369">
        <ele>266.9</ele>
        <time>2020-11-26T08:55:08Z</time>
      </trkpt>
      <trkpt lat="44.19184" lon="5.02382">
        <ele>271.1</ele>
        <time>2020-11-26T08:55:24Z</time>
      </trkpt>
      <trkpt lat="44.19195" lon="5.02381">
        <ele>271.1</ele>
        <time>2020-11-26T08:55:34Z</time>
      </trkpt>
      <trkpt lat="44.192" lon="5.0238">
        <ele>270.9</ele>
        <time>2020-11-26T08:55:38Z</time>
      </trkpt>
      <trkpt lat="44.19205" lon="5.0238">
        <ele>271.1</ele>
        <time>2020-11-26T08:55:42Z</time>
      </trkpt>
      <trkpt lat="44.19218" lon="5.02385">
        <ele>273.2</ele>
        <time>2020-11-26T08:55:55Z</time>
      </trkpt>
      <trkpt lat="44.19227" lon="5.02395">
        <ele>277</ele>
        <time>2020-11-26T08:56:09Z</time>
      </trkpt>
      <trkpt lat="44.19228" lon="5.02405">
        <ele>280.6</ele>
        <time>2020-11-26T08:56:25Z</time>
      </trkpt>
      <trkpt lat="44.19223" lon="5.02412">
        <ele>282.8</ele>
        <time>2020-11-26T08:56:42Z</time>
      </trkpt>
      <trkpt lat="44.19215" lon="5.02421">
        <ele>285.4</ele>
        <time>2020-11-26T08:57:02Z</time>
      </trkpt>
      <trkpt lat="44.1922" lon="5.02431">
        <ele>289</ele>
        <time>2020-11-26T08:57:18Z</time>
      </trkpt>
      <trkpt lat="44.1923" lon="5.02442">
        <ele>292.7</ele>
        <time>2020-11-26T08:57:42Z</time>
      </trkpt>
      <trkpt lat="44.19231" lon="5.02443">
        <ele>293.1</ele>
        <time>2020-11-26T08:57:43Z</time>
      </trkpt>
      <trkpt lat="44.19248" lon="5.02449">
        <ele>294.9</ele>
        <time>2020-11-26T08:57:57Z</time>
      </trkpt>
      <trkpt lat="44.19256" lon="5.02448">
        <ele>294.3</ele>
        <time>2020-11-26T08:58:04Z</time>
      </trkpt>
      <trkpt lat="44.19271" lon="5.02449">
        <ele>293.7</ele>
        <time>2020-11-26T08:58:19Z</time>
      </trkpt>
      <trkpt lat="44.19288" lon="5.02455">
        <ele>294.2</ele>
        <time>2020-11-26T08:58:37Z</time>
      </trkpt>
      <trkpt lat="44.193" lon="5.0247">
        <ele>297</ele>
        <time>2020-11-26T08:58:52Z</time>
      </trkpt>
      <trkpt lat="44.19302" lon="5.02485">
        <ele>300.4</ele>
        <time>2020-11-26T08:59:05Z</time>
      </trkpt>
      <trkpt lat="44.19302" lon="5.02486">
        <ele>300.7</ele>
        <time>2020-11-26T08:59:06Z</time>
      </trkpt>
      <trkpt lat="44.19302" lon="5.02507">
        <ele>305.2</ele>
        <time>2020-11-26T08:59:27Z</time>
      </trkpt>
      <trkpt lat="44.19311" lon="5.02515">
        <ele>305.7</ele>
        <time>2020-11-26T08:59:47Z</time>
      </trkpt>
      <trkpt lat="44.19312" lon="5.02515">
        <ele>305.7</ele>
        <time>2020-11-26T08:59:49Z</time>
      </trkpt>
      <trkpt lat="44.1932" lon="5.02518">
        <ele>305.5</ele>
        <time>2020-11-26T09:00:00Z</time>
      </trkpt>
      <trkpt lat="44.1933" lon="5.02528">
        <ele>306.3</ele>
        <time>2020-11-26T09:00:15Z</time>
      </trkpt>
      <trkpt lat="44.19338" lon="5.02537">
        <ele>307.4</ele>
        <time>2020-11-26T09:00:31Z</time>
      </trkpt>
      <trkpt lat="44.19346" lon="5.02542">
        <ele>307.9</ele>
        <time>2020-11-26T09:00:45Z</time>
      </trkpt>
      <trkpt lat="44.19349" lon="5.02543">
        <ele>307.9</ele>
        <time>2020-11-26T09:00:48Z</time>
      </trkpt>
      <trkpt lat="44.19354" lon="5.02556">
        <ele>310.4</ele>
        <time>2020-11-26T09:01:05Z</time>
      </trkpt>
      <trkpt lat="44.19353" lon="5.02557">
        <ele>310.7</ele>
        <time>2020-11-26T09:01:08Z</time>
      </trkpt>
      <trkpt lat="44.19335" lon="5.02577">
        <ele>314.9</ele>
        <time>2020-11-26T09:01:34Z</time>
      </trkpt>
      <trkpt lat="44.19305" lon="5.02581">
        <ele>317.6</ele>
        <time>2020-11-26T09:02:02Z</time>
      </trkpt>
      <trkpt lat="44.19303" lon="5.0258">
        <ele>317.6</ele>
        <time>2020-11-26T09:02:04Z</time>
      </trkpt>
      <trkpt lat="44.19287" lon="5.02571">
        <ele>317.3</ele>
        <time>2020-11-26T09:02:25Z</time>
      </trkpt>
      <trkpt lat="44.1927" lon="5.02571">
        <ele>318.6</ele>
        <time>2020-11-26T09:02:51Z</time>
      </trkpt>
      <trkpt lat="44.19256" lon="5.0257">
        <ele>319.5</ele>
        <time>2020-11-26T09:03:09Z</time>
      </trkpt>
      <trkpt lat="44.19241" lon="5.0256">
        <ele>320</ele>
        <time>2020-11-26T09:03:25Z</time>
      </trkpt>
      <trkpt lat="44.19222" lon="5.02541">
        <ele>319.7</ele>
        <time>2020-11-26T09:03:52Z</time>
      </trkpt>
      <trkpt lat="44.19207" lon="5.02529">
        <ele>319.4</ele>
        <time>2020-11-26T09:04:14Z</time>
      </trkpt>
      <trkpt lat="44.19188" lon="5.02537">
        <ele>324</ele>
        <time>2020-11-26T09:04:37Z</time>
      </trkpt>
      <trkpt lat="44.19188" lon="5.02539">
        <ele>324.5</ele>
        <time>2020-11-26T09:04:39Z</time>
      </trkpt>
      <trkpt lat="44.1918" lon="5.0255">
        <ele>328.6</ele>
        <time>2020-11-26T09:04:58Z</time>
      </trkpt>
      <trkpt lat="44.19177" lon="5.02555">
        <ele>330.4</ele>
        <time>2020-11-26T09:05:06Z</time>
      </trkpt>
      <trkpt lat="44.19181" lon="5.02568">
        <ele>333</ele>
        <time>2020-11-26T09:05:29Z</time>
      </trkpt>
      <trkpt lat="44.19182" lon="5.0257">
        <ele>333.3</ele>
        <time>2020-11-26T09:05:31Z</time>
      </trkpt>
      <trkpt lat="44.19192" lon="5.02587">
        <ele>336</ele>
        <time>2020-11-26T09:05:52Z</time>
      </trkpt>
      <trkpt lat="44.19203" lon="5.02601">
        <ele>339.1</ele>
        <time>2020-11-26T09:06:12Z</time>
      </trkpt>
      <trkpt lat="44.19204" lon="5.02604">
        <ele>340</ele>
        <time>2020-11-26T09:06:15Z</time>
      </trkpt>
      <trkpt lat="44.19216" lon="5.02624">
        <ele>345.2</ele>
        <time>2020-11-26T09:06:41Z</time>
      </trkpt>
      <trkpt lat="44.19218" lon="5.02633">
        <ele>348.2</ele>
        <time>2020-11-26T09:07:00Z</time>
      </trkpt>
      <trkpt lat="44.19221" lon="5.0265">
        <ele>354.1</ele>
        <time>2020-11-26T09:07:19Z</time>
      </trkpt>
      <trkpt lat="44.19214" lon="5.02645">
        <ele>353.8</ele>
        <time>2020-11-26T09:07:39Z</time>
      </trkpt>
      <trkpt lat="44.19199" lon="5.02641">
        <ele>355.6</ele>
        <time>2020-11-26T09:08:02Z</time>
      </trkpt>
      <trkpt lat="44.19189" lon="5.02637">
        <ele>356.3</ele>
        <time>2020-11-26T09:08:22Z</time>
      </trkpt>
      <trkpt lat="44.19178" lon="5.02644">
        <ele>361.5</ele>
        <time>2020-11-26T09:08:41Z</time>
      </trkpt>
      <trkpt lat="44.19169" lon="5.02649">
        <ele>365.5</ele>
        <time>2020-11-26T09:08:58Z</time>
      </trkpt>
      <trkpt lat="44.19158" lon="5.02645">
        <ele>364.3</ele>
        <time>2020-11-26T09:09:18Z</time>
      </trkpt>
      <trkpt lat="44.19146" lon="5.02648">
        <ele>365.3</ele>
        <time>2020-11-26T09:09:36Z</time>
      </trkpt>
      <trkpt lat="44.19134" lon="5.02656">
        <ele>368.2</ele>
        <time>2020-11-26T09:09:58Z</time>
      </trkpt>
      <trkpt lat="44.1912" lon="5.02663">
        <ele>370.5</ele>
        <time>2020-11-26T09:10:19Z</time>
      </trkpt>
      <trkpt lat="44.19109" lon="5.02664">
        <ele>370.6</ele>
        <time>2020-11-26T09:10:40Z</time>
      </trkpt>
      <trkpt lat="44.19097" lon="5.02666">
        <ele>371.1</ele>
        <time>2020-11-26T09:11:02Z</time>
      </trkpt>
      <trkpt lat="44.19086" lon="5.02676">
        <ele>374.5</ele>
        <time>2020-11-26T09:11:25Z</time>
      </trkpt>
      <trkpt lat="44.19075" lon="5.02683">
        <ele>376.8</ele>
        <time>2020-11-26T09:11:43Z</time>
      </trkpt>
      <trkpt lat="44.19062" lon="5.02696">
        <ele>381</ele>
        <time>2020-11-26T09:12:06Z</time>
      </trkpt>
      <trkpt lat="44.19053" lon="5.02704">
        <ele>383.4</ele>
        <time>2020-11-26T09:12:24Z</time>
      </trkpt>
      <trkpt lat="44.19043" lon="5.02711">
        <ele>385.2</ele>
        <time>2020-11-26T09:12:44Z</time>
      </trkpt>
      <trkpt lat="44.19035" lon="5.02726">
        <ele>389.6</ele>
        <time>2020-11-26T09:13:07Z</time>
      </trkpt>
      <trkpt lat="44.19027" lon="5.02736">
        <ele>392.2</ele>
        <time>2020-11-26T09:13:27Z</time>
      </trkpt>
      <trkpt lat="44.19023" lon="5.02748">
        <ele>395.6</ele>
        <time>2020-11-26T09:13:46Z</time>
      </trkpt>
      <trkpt lat="44.19015" lon="5.02764">
        <ele>396.3</ele>
        <time>2020-11-26T09:14:07Z</time>
      </trkpt>
      <trkpt lat="44.19004" lon="5.02781">
        <ele>396.3</ele>
        <time>2020-11-26T09:14:32Z</time>
      </trkpt>
      <trkpt lat="44.19001" lon="5.02789">
        <ele>396.4</ele>
        <time>2020-11-26T09:14:56Z</time>
      </trkpt>
      <trkpt lat="44.19004" lon="5.02788">
        <ele>396.7</ele>
        <time>2020-11-26T09:15:51Z</time>
      </trkpt>
      <trkpt lat="44.19001" lon="5.0279">
        <ele>396.5</ele>
        <time>2020-11-26T09:18:37Z</time>
      </trkpt>
      <trkpt lat="44.18998" lon="5.02792">
        <ele>396.2</ele>
        <time>2020-11-26T09:18:59Z</time>
      </trkpt>
      <trkpt lat="44.18979" lon="5.02787">
        <ele>393.3</ele>
        <time>2020-11-26T09:19:21Z</time>
      </trkpt>
      <trkpt lat="44.18958" lon="5.02785">
        <ele>390.4</ele>
        <time>2020-11-26T09:19:45Z</time>
      </trkpt>
      <trkpt lat="44.18942" lon="5.0279">
        <ele>388.2</ele>
        <time>2020-11-26T09:20:06Z</time>
      </trkpt>
      <trkpt lat="44.18928" lon="5.02782">
        <ele>386.4</ele>
        <time>2020-11-26T09:20:31Z</time>
      </trkpt>
      <trkpt lat="44.18919" lon="5.02766">
        <ele>385.7</ele>
        <time>2020-11-26T09:20:48Z</time>
      </trkpt>
      <trkpt lat="44.18907" lon="5.02753">
        <ele>385.4</ele>
        <time>2020-11-26T09:21:07Z</time>
      </trkpt>
      <trkpt lat="44.18898" lon="5.02747">
        <ele>384.5</ele>
        <time>2020-11-26T09:21:16Z</time>
      </trkpt>
      <trkpt lat="44.18877" lon="5.02747">
        <ele>383.5</ele>
        <time>2020-11-26T09:21:35Z</time>
      </trkpt>
      <trkpt lat="44.18869" lon="5.0275">
        <ele>383.7</ele>
        <time>2020-11-26T09:21:42Z</time>
      </trkpt>
      <trkpt lat="44.1885" lon="5.02757">
        <ele>382.1</ele>
        <time>2020-11-26T09:22:01Z</time>
      </trkpt>
      <trkpt lat="44.1883" lon="5.02764">
        <ele>379.9</ele>
        <time>2020-11-26T09:22:22Z</time>
      </trkpt>
      <trkpt lat="44.18815" lon="5.02767">
        <ele>377.9</ele>
        <time>2020-11-26T09:22:39Z</time>
      </trkpt>
      <trkpt lat="44.18795" lon="5.02763">
        <ele>376.2</ele>
        <time>2020-11-26T09:23:03Z</time>
      </trkpt>
      <trkpt lat="44.18786" lon="5.02763">
        <ele>375.2</ele>
        <time>2020-11-26T09:23:27Z</time>
      </trkpt>
      <trkpt lat="44.18767" lon="5.0275">
        <ele>374.8</ele>
        <time>2020-11-26T09:23:51Z</time>
      </trkpt>
      <trkpt lat="44.18761" lon="5.02743">
        <ele>373.4</ele>
        <time>2020-11-26T09:24:01Z</time>
      </trkpt>
      <trkpt lat="44.18744" lon="5.02725">
        <ele>369.6</ele>
        <time>2020-11-26T09:24:25Z</time>
      </trkpt>
      <trkpt lat="44.18723" lon="5.02713">
        <ele>365.6</ele>
        <time>2020-11-26T09:24:48Z</time>
      </trkpt>
      <trkpt lat="44.18705" lon="5.02697">
        <ele>363</ele>
        <time>2020-11-26T09:25:13Z</time>
      </trkpt>
      <trkpt lat="44.18688" lon="5.02665">
        <ele>361.7</ele>
        <time>2020-11-26T09:25:35Z</time>
      </trkpt>
      <trkpt lat="44.18684" lon="5.02655">
        <ele>359.5</ele>
        <time>2020-11-26T09:25:42Z</time>
      </trkpt>
      <trkpt lat="44.18665" lon="5.02645">
        <ele>357</ele>
        <time>2020-11-26T09:26:01Z</time>
      </trkpt>
      <trkpt lat="44.18648" lon="5.02636">
        <ele>354.6</ele>
        <time>2020-11-26T09:26:18Z</time>
      </trkpt>
      <trkpt lat="44.18639" lon="5.02635">
        <ele>354</ele>
        <time>2020-11-26T09:26:28Z</time>
      </trkpt>
      <trkpt lat="44.18626" lon="5.02641">
        <ele>354.2</ele>
        <time>2020-11-26T09:26:40Z</time>
      </trkpt>
      <trkpt lat="44.18624" lon="5.02647">
        <ele>354.8</ele>
        <time>2020-11-26T09:26:45Z</time>
      </trkpt>
      <trkpt lat="44.18627" lon="5.02668">
        <ele>357.5</ele>
        <time>2020-11-26T09:27:01Z</time>
      </trkpt>
      <trkpt lat="44.18637" lon="5.0269">
        <ele>355.2</ele>
        <time>2020-11-26T09:27:21Z</time>
      </trkpt>
      <trkpt lat="44.18646" lon="5.02704">
        <ele>354.8</ele>
        <time>2020-11-26T09:27:50Z</time>
      </trkpt>
      <trkpt lat="44.18658" lon="5.02727">
        <ele>354.7</ele>
        <time>2020-11-26T09:28:14Z</time>
      </trkpt>
      <trkpt lat="44.18667" lon="5.0276">
        <ele>353.3</ele>
        <time>2020-11-26T09:28:40Z</time>
      </trkpt>
      <trkpt lat="44.1868" lon="5.02776">
        <ele>353.3</ele>
        <time>2020-11-26T09:29:02Z</time>
      </trkpt>
      <trkpt lat="44.18692" lon="5.02792">
        <ele>353.4</ele>
        <time>2020-11-26T09:29:25Z</time>
      </trkpt>
      <trkpt lat="44.18696" lon="5.02812">
        <ele>351</ele>
        <time>2020-11-26T09:29:50Z</time>
      </trkpt>
      <trkpt lat="44.18697" lon="5.02825">
        <ele>349</ele>
        <time>2020-11-26T09:30:20Z</time>
      </trkpt>
      <trkpt lat="44.18699" lon="5.0286">
        <ele>342.6</ele>
        <time>2020-11-26T09:30:47Z</time>
      </trkpt>
      <trkpt lat="44.187" lon="5.02877">
        <ele>339.2</ele>
        <time>2020-11-26T09:30:59Z</time>
      </trkpt>
      <trkpt lat="44.18709" lon="5.02893">
        <ele>337.4</ele>
        <time>2020-11-26T09:31:13Z</time>
      </trkpt>
      <trkpt lat="44.18725" lon="5.0291">
        <ele>336</ele>
        <time>2020-11-26T09:31:36Z</time>
      </trkpt>
      <trkpt lat="44.18733" lon="5.02916">
        <ele>335.7</ele>
        <time>2020-11-26T09:31:45Z</time>
      </trkpt>
      <trkpt lat="44.18746" lon="5.02924">
        <ele>335.3</ele>
        <time>2020-11-26T09:31:59Z</time>
      </trkpt>
      <trkpt lat="44.18755" lon="5.02929">
        <ele>335</ele>
        <time>2020-11-26T09:32:08Z</time>
      </trkpt>
      <trkpt lat="44.18777" lon="5.0294">
        <ele>334.1</ele>
        <time>2020-11-26T09:32:32Z</time>
      </trkpt>
      <trkpt lat="44.18794" lon="5.02946">
        <ele>334.1</ele>
        <time>2020-11-26T09:32:48Z</time>
      </trkpt>
      <trkpt lat="44.18799" lon="5.02947">
        <ele>334.3</ele>
        <time>2020-11-26T09:32:52Z</time>
      </trkpt>
      <trkpt lat="44.18802" lon="5.02948">
        <ele>334.4</ele>
        <time>2020-11-26T09:32:56Z</time>
      </trkpt>
      <trkpt lat="44.18822" lon="5.0295">
        <ele>335.8</ele>
        <time>2020-11-26T09:33:12Z</time>
      </trkpt>
      <trkpt lat="44.18834" lon="5.02952">
        <ele>336.5</ele>
        <time>2020-11-26T09:33:23Z</time>
      </trkpt>
      <trkpt lat="44.18846" lon="5.02961">
        <ele>335.9</ele>
        <time>2020-11-26T09:33:37Z</time>
      </trkpt>
      <trkpt lat="44.18854" lon="5.02969">
        <ele>334.7</ele>
        <time>2020-11-26T09:33:48Z</time>
      </trkpt>
      <trkpt lat="44.18858" lon="5.02974">
        <ele>333.8</ele>
        <time>2020-11-26T09:33:53Z</time>
      </trkpt>
      <trkpt lat="44.18869" lon="5.02999">
        <ele>327.5</ele>
        <time>2020-11-26T09:34:14Z</time>
      </trkpt>
      <trkpt lat="44.18881" lon="5.03006">
        <ele>327.1</ele>
        <time>2020-11-26T09:34:26Z</time>
      </trkpt>
      <trkpt lat="44.18894" lon="5.0301">
        <ele>327.8</ele>
        <time>2020-11-26T09:34:41Z</time>
      </trkpt>
      <trkpt lat="44.18906" lon="5.0301">
        <ele>329.4</ele>
        <time>2020-11-26T09:34:53Z</time>
      </trkpt>
      <trkpt lat="44.18909" lon="5.0301">
        <ele>329.8</ele>
        <time>2020-11-26T09:34:59Z</time>
      </trkpt>
      <trkpt lat="44.18914" lon="5.03011">
        <ele>330.2</ele>
        <time>2020-11-26T09:35:03Z</time>
      </trkpt>
      <trkpt lat="44.18936" lon="5.03017">
        <ele>332.1</ele>
        <time>2020-11-26T09:35:18Z</time>
      </trkpt>
      <trkpt lat="44.18937" lon="5.03018">
        <ele>332</ele>
        <time>2020-11-26T09:35:19Z</time>
      </trkpt>
      <trkpt lat="44.18948" lon="5.03033">
        <ele>329.4</ele>
        <time>2020-11-26T09:35:36Z</time>
      </trkpt>
      <trkpt lat="44.1896" lon="5.03046">
        <ele>327.8</ele>
        <time>2020-11-26T09:35:47Z</time>
      </trkpt>
      <trkpt lat="44.18973" lon="5.03057">
        <ele>327.1</ele>
        <time>2020-11-26T09:36:03Z</time>
      </trkpt>
      <trkpt lat="44.18985" lon="5.03067">
        <ele>326.6</ele>
        <time>2020-11-26T09:36:16Z</time>
      </trkpt>
      <trkpt lat="44.18995" lon="5.03077">
        <ele>325.7</ele>
        <time>2020-11-26T09:36:30Z</time>
      </trkpt>
      <trkpt lat="44.19014" lon="5.03081">
        <ele>329.1</ele>
        <time>2020-11-26T09:36:46Z</time>
      </trkpt>
      <trkpt lat="44.19039" lon="5.03077">
        <ele>336</ele>
        <time>2020-11-26T09:37:13Z</time>
      </trkpt>
      <trkpt lat="44.19058" lon="5.03063">
        <ele>342.5</ele>
        <time>2020-11-26T09:37:31Z</time>
      </trkpt>
      <trkpt lat="44.19066" lon="5.03061">
        <ele>344.4</ele>
        <time>2020-11-26T09:37:46Z</time>
      </trkpt>
      <trkpt lat="44.19058" lon="5.03068">
        <ele>341.8</ele>
        <time>2020-11-26T09:37:59Z</time>
      </trkpt>
      <trkpt lat="44.19046" lon="5.0307">
        <ele>338.9</ele>
        <time>2020-11-26T09:38:14Z</time>
      </trkpt>
      <trkpt lat="44.19042" lon="5.03082">
        <ele>335.8</ele>
        <time>2020-11-26T09:38:27Z</time>
      </trkpt>
      <trkpt lat="44.19025" lon="5.03089">
        <ele>331.2</ele>
        <time>2020-11-26T09:38:40Z</time>
      </trkpt>
      <trkpt lat="44.19018" lon="5.03095">
        <ele>329.2</ele>
        <time>2020-11-26T09:38:46Z</time>
      </trkpt>
      <trkpt lat="44.19013" lon="5.03097">
        <ele>327.8</ele>
        <time>2020-11-26T09:38:51Z</time>
      </trkpt>
      <trkpt lat="44.19011" lon="5.03098">
        <ele>327.2</ele>
        <time>2020-11-26T09:38:53Z</time>
      </trkpt>
      <trkpt lat="44.19001" lon="5.031">
        <ele>324.3</ele>
        <time>2020-11-26T09:39:05Z</time>
      </trkpt>
      <trkpt lat="44.18993" lon="5.03099">
        <ele>322.5</ele>
        <time>2020-11-26T09:39:12Z</time>
      </trkpt>
      <trkpt lat="44.18979" lon="5.03096">
        <ele>319.5</ele>
        <time>2020-11-26T09:39:25Z</time>
      </trkpt>
      <trkpt lat="44.18978" lon="5.03096">
        <ele>319.3</ele>
        <time>2020-11-26T09:39:26Z</time>
      </trkpt>
      <trkpt lat="44.18962" lon="5.0309">
        <ele>316.4</ele>
        <time>2020-11-26T09:39:52Z</time>
      </trkpt>
      <trkpt lat="44.18961" lon="5.03089">
        <ele>316.4</ele>
        <time>2020-11-26T09:40:18Z</time>
      </trkpt>
      <trkpt lat="44.18962" lon="5.0309">
        <ele>316.4</ele>
        <time>2020-11-26T09:40:37Z</time>
      </trkpt>
      <trkpt lat="44.1896" lon="5.03084">
        <ele>316.8</ele>
        <time>2020-11-26T09:41:21Z</time>
      </trkpt>
      <trkpt lat="44.18952" lon="5.0308">
        <ele>316.2</ele>
        <time>2020-11-26T09:41:42Z</time>
      </trkpt>
      <trkpt lat="44.18946" lon="5.03078">
        <ele>315.6</ele>
        <time>2020-11-26T09:41:47Z</time>
      </trkpt>
      <trkpt lat="44.18932" lon="5.03064">
        <ele>317</ele>
        <time>2020-11-26T09:42:07Z</time>
      </trkpt>
      <trkpt lat="44.18922" lon="5.03075">
        <ele>311.7</ele>
        <time>2020-11-26T09:42:24Z</time>
      </trkpt>
      <trkpt lat="44.18925" lon="5.03079">
        <ele>311</ele>
        <time>2020-11-26T09:42:29Z</time>
      </trkpt>
      <trkpt lat="44.18945" lon="5.03104">
        <ele>310.7</ele>
        <time>2020-11-26T09:42:54Z</time>
      </trkpt>
      <trkpt lat="44.18947" lon="5.03107">
        <ele>310.8</ele>
        <time>2020-11-26T09:42:58Z</time>
      </trkpt>
      <trkpt lat="44.18959" lon="5.03116">
        <ele>312.6</ele>
        <time>2020-11-26T09:43:13Z</time>
      </trkpt>
      <trkpt lat="44.18969" lon="5.03128">
        <ele>313.8</ele>
        <time>2020-11-26T09:43:28Z</time>
      </trkpt>
      <trkpt lat="44.18975" lon="5.03134">
        <ele>314.9</ele>
        <time>2020-11-26T09:43:38Z</time>
      </trkpt>
      <trkpt lat="44.18976" lon="5.03135">
        <ele>315</ele>
        <time>2020-11-26T09:43:39Z</time>
      </trkpt>
      <trkpt lat="44.18965" lon="5.0315">
        <ele>310.2</ele>
        <time>2020-11-26T09:44:01Z</time>
      </trkpt>
      <trkpt lat="44.18949" lon="5.03154">
        <ele>304.6</ele>
        <time>2020-11-26T09:44:27Z</time>
      </trkpt>
      <trkpt lat="44.18935" lon="5.03164">
        <ele>298.6</ele>
        <time>2020-11-26T09:44:51Z</time>
      </trkpt>
      <trkpt lat="44.18918" lon="5.03175">
        <ele>291.7</ele>
        <time>2020-11-26T09:45:15Z</time>
      </trkpt>
      <trkpt lat="44.18908" lon="5.03185">
        <ele>289.8</ele>
        <time>2020-11-26T09:45:37Z</time>
      </trkpt>
      <trkpt lat="44.18911" lon="5.0319">
        <ele>289.4</ele>
        <time>2020-11-26T09:45:44Z</time>
      </trkpt>
      <trkpt lat="44.18915" lon="5.03197">
        <ele>289</ele>
        <time>2020-11-26T09:45:50Z</time>
      </trkpt>
      <trkpt lat="44.18923" lon="5.03222">
        <ele>289</ele>
        <time>2020-11-26T09:46:10Z</time>
      </trkpt>
      <trkpt lat="44.18928" lon="5.03244">
        <ele>288.9</ele>
        <time>2020-11-26T09:46:28Z</time>
      </trkpt>
      <trkpt lat="44.18929" lon="5.03248">
        <ele>288.9</ele>
        <time>2020-11-26T09:46:38Z</time>
      </trkpt>
      <trkpt lat="44.18934" lon="5.03261">
        <ele>288.8</ele>
        <time>2020-11-26T09:46:48Z</time>
      </trkpt>
      <trkpt lat="44.18949" lon="5.03282">
        <ele>290.2</ele>
        <time>2020-11-26T09:47:07Z</time>
      </trkpt>
      <trkpt lat="44.18959" lon="5.03302">
        <ele>289.3</ele>
        <time>2020-11-26T09:47:25Z</time>
      </trkpt>
      <trkpt lat="44.18963" lon="5.03319">
        <ele>286.8</ele>
        <time>2020-11-26T09:47:41Z</time>
      </trkpt>
      <trkpt lat="44.18969" lon="5.03346">
        <ele>283.9</ele>
        <time>2020-11-26T09:48:02Z</time>
      </trkpt>
      <trkpt lat="44.1897" lon="5.03383">
        <ele>280.2</ele>
        <time>2020-11-26T09:48:28Z</time>
      </trkpt>
      <trkpt lat="44.18975" lon="5.03411">
        <ele>278</ele>
        <time>2020-11-26T09:48:46Z</time>
      </trkpt>
      <trkpt lat="44.18981" lon="5.03438">
        <ele>278</ele>
        <time>2020-11-26T09:49:05Z</time>
      </trkpt>
      <trkpt lat="44.18988" lon="5.0346">
        <ele>278.3</ele>
        <time>2020-11-26T09:49:22Z</time>
      </trkpt>
      <trkpt lat="44.18996" lon="5.03486">
        <ele>278.2</ele>
        <time>2020-11-26T09:49:40Z</time>
      </trkpt>
      <trkpt lat="44.19003" lon="5.03507">
        <ele>278.7</ele>
        <time>2020-11-26T09:49:56Z</time>
      </trkpt>
      <trkpt lat="44.1901" lon="5.03532">
        <ele>280.5</ele>
        <time>2020-11-26T09:50:15Z</time>
      </trkpt>
      <trkpt lat="44.19012" lon="5.03543">
        <ele>281</ele>
      </trkpt>
      <trkpt lat="44.19015" lon="5.03557">
        <ele>281.5</ele>
      </trkpt>
      <trkpt lat="44.19016" lon="5.03558">
        <ele>281.6</ele>
        <time>2020-11-26T09:56:08Z</time>
      </trkpt>
      <trkpt lat="44.19024" lon="5.03597">
        <ele>283</ele>
        <time>2020-11-26T09:56:38Z</time>
      </trkpt>
      <trkpt lat="44.19032" lon="5.03625">
        <ele>284.2</ele>
        <time>2020-11-26T09:57:00Z</time>
      </trkpt>
      <trkpt lat="44.19038" lon="5.03644">
        <ele>284.8</ele>
        <time>2020-11-26T09:57:18Z</time>
      </trkpt>
      <trkpt lat="44.19044" lon="5.03678">
        <ele>286.9</ele>
        <time>2020-11-26T09:57:45Z</time>
      </trkpt>
      <trkpt lat="44.19043" lon="5.03701">
        <ele>290</ele>
        <time>2020-11-26T09:58:06Z</time>
      </trkpt>
      <trkpt lat="44.19046" lon="5.03708">
        <ele>290.9</ele>
        <time>2020-11-26T09:58:27Z</time>
      </trkpt>
      <trkpt lat="44.19062" lon="5.03726">
        <ele>293.5</ele>
        <time>2020-11-26T09:58:46Z</time>
      </trkpt>
      <trkpt lat="44.19075" lon="5.0374">
        <ele>296</ele>
        <time>2020-11-26T09:59:02Z</time>
      </trkpt>
      <trkpt lat="44.19093" lon="5.03757">
        <ele>297.8</ele>
        <time>2020-11-26T09:59:23Z</time>
      </trkpt>
      <trkpt lat="44.19111" lon="5.03779">
        <ele>298.1</ele>
        <time>2020-11-26T09:59:50Z</time>
      </trkpt>
      <trkpt lat="44.19113" lon="5.03789">
        <ele>298.7</ele>
        <time>2020-11-26T09:59:58Z</time>
      </trkpt>
      <trkpt lat="44.19109" lon="5.03809">
        <ele>300.3</ele>
        <time>2020-11-26T10:00:17Z</time>
      </trkpt>
      <trkpt lat="44.19093" lon="5.0382">
        <ele>301.8</ele>
        <time>2020-11-26T10:00:35Z</time>
      </trkpt>
      <trkpt lat="44.19075" lon="5.03836">
        <ele>302.9</ele>
        <time>2020-11-26T10:00:54Z</time>
      </trkpt>
      <trkpt lat="44.19067" lon="5.03842">
        <ele>302.9</ele>
        <time>2020-11-26T10:01:04Z</time>
      </trkpt>
      <trkpt lat="44.19049" lon="5.03854">
        <ele>303</ele>
        <time>2020-11-26T10:01:24Z</time>
      </trkpt>
      <trkpt lat="44.19044" lon="5.03866">
        <ele>303.3</ele>
        <time>2020-11-26T10:01:38Z</time>
      </trkpt>
      <trkpt lat="44.19034" lon="5.03891">
        <ele>304</ele>
        <time>2020-11-26T10:01:55Z</time>
      </trkpt>
      <trkpt lat="44.19025" lon="5.03909">
        <ele>304.8</ele>
        <time>2020-11-26T10:02:10Z</time>
      </trkpt>
      <trkpt lat="44.19011" lon="5.03918">
        <ele>305.7</ele>
        <time>2020-11-26T10:02:25Z</time>
      </trkpt>
      <trkpt lat="44.19004" lon="5.0392">
        <ele>306</ele>
        <time>2020-11-26T10:02:40Z</time>
      </trkpt>
      <trkpt lat="44.18994" lon="5.03928">
        <ele>305.9</ele>
        <time>2020-11-26T10:03:00Z</time>
      </trkpt>
      <trkpt lat="44.18991" lon="5.03936">
        <ele>305.9</ele>
        <time>2020-11-26T10:03:25Z</time>
      </trkpt>
      <trkpt lat="44.18989" lon="5.03936">
        <ele>305.7</ele>
        <time>2020-11-26T10:03:53Z</time>
      </trkpt>
      <trkpt lat="44.18995" lon="5.03943">
        <ele>306.7</ele>
        <time>2020-11-26T10:04:32Z</time>
      </trkpt>
      <trkpt lat="44.18994" lon="5.03938">
        <ele>306.4</ele>
        <time>2020-11-26T10:04:34Z</time>
      </trkpt>
      <trkpt lat="44.1899" lon="5.0394">
        <ele>306</ele>
        <time>2020-11-26T10:04:54Z</time>
      </trkpt>
      <trkpt lat="44.18987" lon="5.03949">
        <ele>306</ele>
        <time>2020-11-26T10:05:01Z</time>
      </trkpt>
      <trkpt lat="44.18985" lon="5.03954">
        <ele>305.9</ele>
        <time>2020-11-26T10:05:04Z</time>
      </trkpt>
      <trkpt lat="44.18983" lon="5.03988">
        <ele>306.9</ele>
        <time>2020-11-26T10:05:31Z</time>
      </trkpt>
      <trkpt lat="44.18988" lon="5.03997">
        <ele>308</ele>
        <time>2020-11-26T10:05:42Z</time>
      </trkpt>
      <trkpt lat="44.18996" lon="5.04004">
        <ele>309.4</ele>
        <time>2020-11-26T10:05:55Z</time>
      </trkpt>
      <trkpt lat="44.19017" lon="5.04012">
        <ele>310.5</ele>
        <time>2020-11-26T10:06:20Z</time>
      </trkpt>
      <trkpt lat="44.1903" lon="5.04016">
        <ele>311</ele>
        <time>2020-11-26T10:06:39Z</time>
      </trkpt>
      <trkpt lat="44.19029" lon="5.0402">
        <ele>311</ele>
        <time>2020-11-26T10:07:10Z</time>
      </trkpt>
      <trkpt lat="44.1904" lon="5.04022">
        <ele>311.5</ele>
        <time>2020-11-26T10:07:24Z</time>
      </trkpt>
      <trkpt lat="44.19042" lon="5.04023">
        <ele>311.6</ele>
        <time>2020-11-26T10:07:26Z</time>
      </trkpt>
      <trkpt lat="44.19059" lon="5.0404">
        <ele>312.8</ele>
        <time>2020-11-26T10:07:44Z</time>
      </trkpt>
      <trkpt lat="44.19078" lon="5.04061">
        <ele>314.6</ele>
        <time>2020-11-26T10:08:08Z</time>
      </trkpt>
      <trkpt lat="44.19089" lon="5.04074">
        <ele>315.8</ele>
        <time>2020-11-26T10:08:24Z</time>
      </trkpt>
      <trkpt lat="44.19103" lon="5.04096">
        <ele>317.2</ele>
        <time>2020-11-26T10:08:51Z</time>
      </trkpt>
      <trkpt lat="44.19107" lon="5.04102">
        <ele>317.6</ele>
        <time>2020-11-26T10:09:16Z</time>
      </trkpt>
      <trkpt lat="44.19107" lon="5.04103">
        <ele>317.6</ele>
        <time>2020-11-26T10:09:51Z</time>
      </trkpt>
      <trkpt lat="44.19118" lon="5.04123">
        <ele>319.4</ele>
        <time>2020-11-26T10:10:17Z</time>
      </trkpt>
      <trkpt lat="44.19119" lon="5.04126">
        <ele>319.6</ele>
        <time>2020-11-26T10:10:19Z</time>
      </trkpt>
      <trkpt lat="44.19131" lon="5.04159">
        <ele>323.1</ele>
        <time>2020-11-26T10:10:44Z</time>
      </trkpt>
      <trkpt lat="44.19139" lon="5.04191">
        <ele>326.8</ele>
        <time>2020-11-26T10:11:07Z</time>
      </trkpt>
      <trkpt lat="44.19139" lon="5.0423">
        <ele>329.6</ele>
        <time>2020-11-26T10:11:32Z</time>
      </trkpt>
      <trkpt lat="44.19137" lon="5.04269">
        <ele>332.1</ele>
        <time>2020-11-26T10:11:59Z</time>
      </trkpt>
      <trkpt lat="44.19127" lon="5.04308">
        <ele>332.8</ele>
        <time>2020-11-26T10:12:25Z</time>
      </trkpt>
      <trkpt lat="44.19114" lon="5.04343">
        <ele>332.2</ele>
        <time>2020-11-26T10:12:51Z</time>
      </trkpt>
      <trkpt lat="44.19105" lon="5.04371">
        <ele>332.7</ele>
        <time>2020-11-26T10:13:12Z</time>
      </trkpt>
      <trkpt lat="44.19099" lon="5.04404">
        <ele>334.4</ele>
        <time>2020-11-26T10:13:34Z</time>
      </trkpt>
      <trkpt lat="44.1909" lon="5.04437">
        <ele>334</ele>
        <time>2020-11-26T10:13:58Z</time>
      </trkpt>
      <trkpt lat="44.19088" lon="5.04442">
        <ele>333.7</ele>
        <time>2020-11-26T10:14:02Z</time>
      </trkpt>
      <trkpt lat="44.19088" lon="5.04486">
        <ele>335.8</ele>
        <time>2020-11-26T10:14:31Z</time>
      </trkpt>
      <trkpt lat="44.19088" lon="5.04501">
        <ele>336.6</ele>
        <time>2020-11-26T10:14:53Z</time>
      </trkpt>
      <trkpt lat="44.19093" lon="5.04525">
        <ele>339.1</ele>
        <time>2020-11-26T10:15:19Z</time>
      </trkpt>
      <trkpt lat="44.19097" lon="5.04565">
        <ele>342.2</ele>
        <time>2020-11-26T10:15:47Z</time>
      </trkpt>
      <trkpt lat="44.19095" lon="5.04586">
        <ele>342.3</ele>
        <time>2020-11-26T10:16:03Z</time>
      </trkpt>
      <trkpt lat="44.19095" lon="5.04618">
        <ele>344.1</ele>
        <time>2020-11-26T10:16:22Z</time>
      </trkpt>
      <trkpt lat="44.19091" lon="5.04642">
        <ele>343.8</ele>
        <time>2020-11-26T10:16:39Z</time>
      </trkpt>
      <trkpt lat="44.19083" lon="5.04674">
        <ele>342.7</ele>
        <time>2020-11-26T10:17:04Z</time>
      </trkpt>
      <trkpt lat="44.1908" lon="5.04683">
        <ele>343.7</ele>
        <time>2020-11-26T10:17:11Z</time>
      </trkpt>
      <trkpt lat="44.1906" lon="5.04718">
        <ele>346.5</ele>
        <time>2020-11-26T10:17:40Z</time>
      </trkpt>
      <trkpt lat="44.19046" lon="5.04743">
        <ele>347.1</ele>
        <time>2020-11-26T10:18:04Z</time>
      </trkpt>
      <trkpt lat="44.19039" lon="5.04782">
        <ele>348.3</ele>
        <time>2020-11-26T10:18:27Z</time>
      </trkpt>
      <trkpt lat="44.19046" lon="5.04802">
        <ele>349.2</ele>
        <time>2020-11-26T10:18:48Z</time>
      </trkpt>
      <trkpt lat="44.19055" lon="5.04818">
        <ele>349.6</ele>
        <time>2020-11-26T10:19:01Z</time>
      </trkpt>
      <trkpt lat="44.19071" lon="5.04833">
        <ele>349.4</ele>
        <time>2020-11-26T10:19:19Z</time>
      </trkpt>
      <trkpt lat="44.19085" lon="5.04851">
        <ele>350</ele>
        <time>2020-11-26T10:19:42Z</time>
      </trkpt>
      <trkpt lat="44.19096" lon="5.04859">
        <ele>353.5</ele>
        <time>2020-11-26T10:19:59Z</time>
      </trkpt>
      <trkpt lat="44.19115" lon="5.04874">
        <ele>358.2</ele>
        <time>2020-11-26T10:20:23Z</time>
      </trkpt>
      <trkpt lat="44.19128" lon="5.04893">
        <ele>359.5</ele>
        <time>2020-11-26T10:20:45Z</time>
      </trkpt>
      <trkpt lat="44.19149" lon="5.04914">
        <ele>360.1</ele>
        <time>2020-11-26T10:21:12Z</time>
      </trkpt>
      <trkpt lat="44.1917" lon="5.0493">
        <ele>364.6</ele>
        <time>2020-11-26T10:21:35Z</time>
      </trkpt>
      <trkpt lat="44.19182" lon="5.04942">
        <ele>368.9</ele>
        <time>2020-11-26T10:21:54Z</time>
      </trkpt>
      <trkpt lat="44.19188" lon="5.04944">
        <ele>370.4</ele>
        <time>2020-11-26T10:22:01Z</time>
      </trkpt>
      <trkpt lat="44.19196" lon="5.04951">
        <ele>372.4</ele>
        <time>2020-11-26T10:22:09Z</time>
      </trkpt>
      <trkpt lat="44.19212" lon="5.0497">
        <ele>374.8</ele>
        <time>2020-11-26T10:22:33Z</time>
      </trkpt>
      <trkpt lat="44.19235" lon="5.04988">
        <ele>375.4</ele>
        <time>2020-11-26T10:23:00Z</time>
      </trkpt>
      <trkpt lat="44.1925" lon="5.05006">
        <ele>374.6</ele>
        <time>2020-11-26T10:23:24Z</time>
      </trkpt>
      <trkpt lat="44.19269" lon="5.05022">
        <ele>381.7</ele>
        <time>2020-11-26T10:23:47Z</time>
      </trkpt>
      <trkpt lat="44.19283" lon="5.05039">
        <ele>385.9</ele>
        <time>2020-11-26T10:24:09Z</time>
      </trkpt>
      <trkpt lat="44.19299" lon="5.05052">
        <ele>389.3</ele>
        <time>2020-11-26T10:24:29Z</time>
      </trkpt>
      <trkpt lat="44.19304" lon="5.05059">
        <ele>389.9</ele>
        <time>2020-11-26T10:24:36Z</time>
      </trkpt>
      <trkpt lat="44.1931" lon="5.05087">
        <ele>389.3</ele>
        <time>2020-11-26T10:25:01Z</time>
      </trkpt>
      <trkpt lat="44.19315" lon="5.05126">
        <ele>389.7</ele>
        <time>2020-11-26T10:25:25Z</time>
      </trkpt>
      <trkpt lat="44.19317" lon="5.05154">
        <ele>389.5</ele>
        <time>2020-11-26T10:25:43Z</time>
      </trkpt>
      <trkpt lat="44.19318" lon="5.05161">
        <ele>389.3</ele>
        <time>2020-11-26T10:25:48Z</time>
      </trkpt>
      <trkpt lat="44.1932" lon="5.0518">
        <ele>389.8</ele>
        <time>2020-11-26T10:26:02Z</time>
      </trkpt>
      <trkpt lat="44.19322" lon="5.05216">
        <ele>392</ele>
        <time>2020-11-26T10:26:29Z</time>
      </trkpt>
      <trkpt lat="44.19329" lon="5.05244">
        <ele>392.5</ele>
        <time>2020-11-26T10:26:54Z</time>
      </trkpt>
      <trkpt lat="44.19332" lon="5.05271">
        <ele>393</ele>
        <time>2020-11-26T10:27:17Z</time>
      </trkpt>
      <trkpt lat="44.19332" lon="5.05314">
        <ele>394.6</ele>
        <time>2020-11-26T10:27:46Z</time>
      </trkpt>
      <trkpt lat="44.1933" lon="5.0535">
        <ele>397.1</ele>
        <time>2020-11-26T10:28:12Z</time>
      </trkpt>
      <trkpt lat="44.19331" lon="5.05363">
        <ele>398.2</ele>
        <time>2020-11-26T10:28:26Z</time>
      </trkpt>
      <trkpt lat="44.19333" lon="5.05381">
        <ele>399.6</ele>
        <time>2020-11-26T10:28:50Z</time>
      </trkpt>
      <trkpt lat="44.19331" lon="5.05379">
        <ele>399.6</ele>
        <time>2020-11-26T10:29:12Z</time>
      </trkpt>
      <trkpt lat="44.19322" lon="5.05383">
        <ele>400.9</ele>
        <time>2020-11-26T10:29:30Z</time>
      </trkpt>
      <trkpt lat="44.19318" lon="5.05391">
        <ele>401.9</ele>
        <time>2020-11-26T10:29:43Z</time>
      </trkpt>
      <trkpt lat="44.19307" lon="5.05413">
        <ele>404.1</ele>
        <time>2020-11-26T10:30:07Z</time>
      </trkpt>
      <trkpt lat="44.19298" lon="5.05425">
        <ele>405.8</ele>
        <time>2020-11-26T10:30:25Z</time>
      </trkpt>
      <trkpt lat="44.19295" lon="5.05436">
        <ele>407.2</ele>
        <time>2020-11-26T10:31:06Z</time>
      </trkpt>
      <trkpt lat="44.19284" lon="5.05452">
        <ele>408.2</ele>
        <time>2020-11-26T10:31:26Z</time>
      </trkpt>
      <trkpt lat="44.19273" lon="5.0547">
        <ele>408.2</ele>
        <time>2020-11-26T10:31:48Z</time>
      </trkpt>
      <trkpt lat="44.19268" lon="5.05474">
        <ele>407.6</ele>
        <time>2020-11-26T10:31:56Z</time>
      </trkpt>
      <trkpt lat="44.19268" lon="5.05483">
        <ele>407.9</ele>
        <time>2020-11-26T10:32:02Z</time>
      </trkpt>
      <trkpt lat="44.19261" lon="5.05487">
        <ele>406.6</ele>
        <time>2020-11-26T10:32:12Z</time>
      </trkpt>
      <trkpt lat="44.19244" lon="5.05503">
        <ele>405.4</ele>
        <time>2020-11-26T10:32:30Z</time>
      </trkpt>
      <trkpt lat="44.19242" lon="5.05515">
        <ele>406.3</ele>
        <time>2020-11-26T10:32:41Z</time>
      </trkpt>
      <trkpt lat="44.19229" lon="5.05542">
        <ele>409.7</ele>
        <time>2020-11-26T10:33:03Z</time>
      </trkpt>
      <trkpt lat="44.19225" lon="5.05544">
        <ele>410.4</ele>
        <time>2020-11-26T10:33:23Z</time>
      </trkpt>
      <trkpt lat="44.19226" lon="5.05541">
        <ele>410.2</ele>
        <time>2020-11-26T10:33:41Z</time>
      </trkpt>
      <trkpt lat="44.19224" lon="5.05541">
        <ele>410.5</ele>
        <time>2020-11-26T10:33:48Z</time>
      </trkpt>
      <trkpt lat="44.19224" lon="5.05542">
        <ele>410.5</ele>
        <time>2020-11-26T10:34:03Z</time>
      </trkpt>
      <trkpt lat="44.19212" lon="5.05535">
        <ele>412.5</ele>
        <time>2020-11-26T10:34:31Z</time>
      </trkpt>
      <trkpt lat="44.1922" lon="5.05548">
        <ele>411.4</ele>
        <time>2020-11-26T10:34:57Z</time>
      </trkpt>
      <trkpt lat="44.19226" lon="5.05561">
        <ele>410.8</ele>
        <time>2020-11-26T10:35:44Z</time>
      </trkpt>
      <trkpt lat="44.19228" lon="5.05578">
        <ele>411.1</ele>
      </trkpt>
      <trkpt lat="44.19229" lon="5.05587">
        <ele>411.4</ele>
      </trkpt>
      <trkpt lat="44.19229" lon="5.05585">
        <ele>411.2</ele>
        <time>2020-11-26T10:46:34Z</time>
      </trkpt>
      <trkpt lat="44.19237" lon="5.05601">
        <ele>411.3</ele>
        <time>2020-11-26T10:46:58Z</time>
      </trkpt>
      <trkpt lat="44.1924" lon="5.05602">
        <ele>410.9</ele>
        <time>2020-11-26T10:47:08Z</time>
      </trkpt>
      <trkpt lat="44.1924" lon="5.05583">
        <ele>409.4</ele>
        <time>2020-11-26T10:47:26Z</time>
      </trkpt>
      <trkpt lat="44.19243" lon="5.05588">
        <ele>409.3</ele>
        <time>2020-11-26T10:47:30Z</time>
      </trkpt>
      <trkpt lat="44.1925" lon="5.05602">
        <ele>409.1</ele>
        <time>2020-11-26T10:47:42Z</time>
      </trkpt>
      <trkpt lat="44.19256" lon="5.0561">
        <ele>411.6</ele>
        <time>2020-11-26T10:47:57Z</time>
      </trkpt>
      <trkpt lat="44.19259" lon="5.0562">
        <ele>413.2</ele>
        <time>2020-11-26T10:48:27Z</time>
      </trkpt>
      <trkpt lat="44.19266" lon="5.05621">
        <ele>415.5</ele>
        <time>2020-11-26T10:48:46Z</time>
      </trkpt>
      <trkpt lat="44.1927" lon="5.05623">
        <ele>416.9</ele>
        <time>2020-11-26T10:49:02Z</time>
      </trkpt>
      <trkpt lat="44.19273" lon="5.0563">
        <ele>418.2</ele>
        <time>2020-11-26T10:49:23Z</time>
      </trkpt>
      <trkpt lat="44.19281" lon="5.05641">
        <ele>421.1</ele>
        <time>2020-11-26T10:49:41Z</time>
      </trkpt>
      <trkpt lat="44.19283" lon="5.05642">
        <ele>415</ele>
      </trkpt>
      <trkpt lat="44.19246" lon="5.05578">
        <ele>401</ele>
      </trkpt>
      <trkpt lat="44.19232" lon="5.05544">
        <ele>395.3</ele>
      </trkpt>
      <trkpt lat="44.19263" lon="5.055">
        <ele>396.7</ele>
      </trkpt>
      <trkpt lat="44.19291" lon="5.05454">
        <ele>392.9</ele>
      </trkpt>
      <trkpt lat="44.19319" lon="5.05358">
        <ele>379.1</ele>
      </trkpt>
      <trkpt lat="44.19326" lon="5.05152">
        <ele>375.8</ele>
      </trkpt>
      <trkpt lat="44.19311" lon="5.0506">
        <ele>373.1</ele>
      </trkpt>
      <trkpt lat="44.19227" lon="5.04966">
        <ele>357.3</ele>
      </trkpt>
      <trkpt lat="44.1913" lon="5.04888">
        <ele>345.9</ele>
      </trkpt>
      <trkpt lat="44.19035" lon="5.04812">
        <ele>334</ele>
      </trkpt>
      <trkpt lat="44.19035" lon="5.04737">
        <ele>328.4</ele>
      </trkpt>
      <trkpt lat="44.19062" lon="5.04691">
        <ele>325</ele>
      </trkpt>
      <trkpt lat="44.19085" lon="5.04619">
        <ele>320.6</ele>
      </trkpt>
      <trkpt lat="44.19081" lon="5.04403">
        <ele>320.3</ele>
      </trkpt>
      <trkpt lat="44.19111" lon="5.04279">
        <ele>307.3</ele>
      </trkpt>
      <trkpt lat="44.1913" lon="5.04231">
        <ele>315.8</ele>
      </trkpt>
      <trkpt lat="44.19114" lon="5.04145">
        <ele>316.4</ele>
      </trkpt>
      <trkpt lat="44.19082" lon="5.04087">
        <ele>321.4</ele>
      </trkpt>
      <trkpt lat="44.19021" lon="5.04037">
        <ele>313.8</ele>
      </trkpt>
      <trkpt lat="44.18975" lon="5.04011">
        <ele>305</ele>
      </trkpt>
      <trkpt lat="44.18978" lon="5.03927">
        <ele>305.9</ele>
      </trkpt>
      <trkpt lat="44.18999" lon="5.03909">
        <ele>305</ele>
      </trkpt>
      <trkpt lat="44.19097" lon="5.03963">
        <ele>306.1</ele>
      </trkpt>
      <trkpt lat="44.19164" lon="5.03993">
        <ele>305.6</ele>
      </trkpt>
      <trkpt lat="44.1922" lon="5.04001">
        <ele>305.1</ele>
      </trkpt>
      <trkpt lat="44.19252" lon="5.04015">
        <ele>307.1</ele>
      </trkpt>
      <trkpt lat="44.19285" lon="5.03981">
        <ele>306.7</ele>
      </trkpt>
      <trkpt lat="44.19312" lon="5.03917">
        <ele>304.1</ele>
      </trkpt>
      <trkpt lat="44.19368" lon="5.03905">
        <ele>307.1</ele>
      </trkpt>
      <trkpt lat="44.1942" lon="5.03911">
        <ele>309.5</ele>
      </trkpt>
      <trkpt lat="44.19466" lon="5.03917">
        <ele>315.9</ele>
      </trkpt>
      <trkpt lat="44.19548" lon="5.03929">
        <ele>324.9</ele>
      </trkpt>
      <trkpt lat="44.19582" lon="5.03884">
        <ele>334.3</ele>
      </trkpt>
      <trkpt lat="44.19614" lon="5.03843">
        <ele>338.1</ele>
      </trkpt>
      <trkpt lat="44.19653" lon="5.03818">
        <ele>344</ele>
      </trkpt>
      <trkpt lat="44.19691" lon="5.03815">
        <ele>344.4</ele>
      </trkpt>
      <trkpt lat="44.19725" lon="5.03745">
        <ele>352.7</ele>
      </trkpt>
      <trkpt lat="44.19765" lon="5.03685">
        <ele>359.6</ele>
      </trkpt>
      <trkpt lat="44.19797" lon="5.03618">
        <ele>367</ele>
      </trkpt>
      <trkpt lat="44.19813" lon="5.03573">
        <ele>371.7</ele>
      </trkpt>
      <trkpt lat="44.19807" lon="5.03526">
        <ele>370.9</ele>
      </trkpt>
      <trkpt lat="44.19821" lon="5.03487">
        <ele>363.8</ele>
      </trkpt>
      <trkpt lat="44.19819" lon="5.03466">
        <ele>357.5</ele>
      </trkpt>
      <trkpt lat="44.19794" lon="5.03429">
        <ele>352.6</ele>
      </trkpt>
      <trkpt lat="44.19774" lon="5.0338">
        <ele>347.6</ele>
      </trkpt>
      <trkpt lat="44.19774" lon="5.0335">
        <ele>342.8</ele>
      </trkpt>
      <trkpt lat="44.19802" lon="5.03382">
        <ele>336.3</ele>
      </trkpt>
      <trkpt lat="44.19828" lon="5.03386">
        <ele>332.2</ele>
      </trkpt>
      <trkpt lat="44.19837" lon="5.03371">
        <ele>329.9</ele>
      </trkpt>
      <trkpt lat="44.19821" lon="5.03361">
        <ele>328.3</ele>
      </trkpt>
      <trkpt lat="44.19834" lon="5.03328">
        <ele>319.5</ele>
      </trkpt>
      <trkpt lat="44.19861" lon="5.03262">
        <ele>307.3</ele>
      </trkpt>
      <trkpt lat="44.19896" lon="5.03215">
        <ele>299.6</ele>
      </trkpt>
      <trkpt lat="44.19943" lon="5.03173">
        <ele>287.8</ele>
      </trkpt>
      <trkpt lat="44.20002" lon="5.03126">
        <ele>273.8</ele>
      </trkpt>
      <trkpt lat="44.20057" lon="5.03078">
        <ele>265</ele>
      </trkpt>
      <trkpt lat="44.20088" lon="5.03071">
        <ele>264.7</ele>
      </trkpt>
      <trkpt lat="44.20165" lon="5.03013">
        <ele>254.7</ele>
      </trkpt>
      <trkpt lat="44.20181" lon="5.0297">
        <ele>250.1</ele>
      </trkpt>
      <trkpt lat="44.20204" lon="5.02931">
        <ele>245.5</ele>
      </trkpt>
      <trkpt lat="44.20248" lon="5.02893">
        <ele>241.6</ele>
      </trkpt>
      <trkpt lat="44.20294" lon="5.02824">
        <ele>236.1</ele>
      </trkpt>
      <trkpt lat="44.20333" lon="5.02773">
        <ele>230.7</ele>
      </trkpt>
      <trkpt lat="44.20357" lon="5.02706">
        <ele>228.7</ele>
      </trkpt>
      <trkpt lat="44.20384" lon="5.02657">
        <ele>229.3</ele>
      </trkpt>
      <trkpt lat="44.20393" lon="5.02603">
        <ele>229.2</ele>
      </trkpt>
      <trkpt lat="44.20381" lon="5.02524">
        <ele>227.3</ele>
      </trkpt>
      <trkpt lat="44.20376" lon="5.02474">
        <ele>229.9</ele>
      </trkpt>
      <trkpt lat="44.20393" lon="5.02371">
        <ele>228.5</ele>
      </trkpt>
      <trkpt lat="44.20411" lon="5.02307">
        <ele>230.7</ele>
      </trkpt>
      <trkpt lat="44.2045" lon="5.02296">
        <ele>235</ele>
      </trkpt>
      <trkpt lat="44.20537" lon="5.02281">
        <ele>241.4</ele>
      </trkpt>
      <trkpt lat="44.20621" lon="5.02269">
        <ele>242.8</ele>
      </trkpt>
      <trkpt lat="44.2067" lon="5.02279">
        <ele>239.9</ele>
      </trkpt>
      <trkpt lat="44.20715" lon="5.02334">
        <ele>238.3</ele>
      </trkpt>
    </trkseg>
  </trk>
</gpx>